createdAt,value
2023-05-06T09:42:13.656Z,94.10
2023-05-06T09:44:43.738Z,93.90
2023-05-06T09:47:17.844Z,91.80
2023-05-06T09:49:48.118Z,86.50
2023-05-06T09:52:19.586Z,88.20
2023-05-06T09:54:51.714Z,88.20
2023-05-06T09:57:22.751Z,86.20
2023-05-06T09:59:55.059Z,85.70
2023-05-06T10:02:30.512Z,85.50
2023-05-06T10:05:02.621Z,86.10
2023-05-06T10:07:33.583Z,80.30
2023-05-06T10:10:05.555Z,80.60
2023-05-06T10:12:35.720Z,80.80
2023-05-06T10:15:06.437Z,76.20
2023-05-06T10:17:42.611Z,76.70
2023-05-06T10:20:16.727Z,72.70
2023-05-06T10:23:02.487Z,70.30
2023-05-06T10:25:38.903Z,70.10
2023-05-06T10:28:30.528Z,69.50
2023-05-06T10:31:01.887Z,68.20
2023-05-06T10:33:34.953Z,67.40
2023-05-06T10:36:16.573Z,68.50
2023-05-06T10:38:49.507Z,70.30
2023-05-06T10:41:22.370Z,70.40
2023-05-06T10:43:57.344Z,70.30
2023-05-06T10:46:29.129Z,71.30
2023-05-06T10:49:23.040Z,73.40
2023-05-06T10:52:12.958Z,74.10
2023-05-06T10:54:53.116Z,74.00
2023-05-06T10:57:27.296Z,73.80
2023-05-06T10:59:57.867Z,74.20
2023-05-06T11:02:27.846Z,75.30
2023-05-06T11:05:05.425Z,75.50
2023-05-06T11:07:36.808Z,76.50
2023-05-06T11:10:08.582Z,76.20
2023-05-06T11:12:49.509Z,76.30
2023-05-06T11:15:38.767Z,76.10
2023-05-06T11:18:38.642Z,75.70
2023-05-06T11:21:43.935Z,73.90
2023-05-06T11:24:17.405Z,76.00
2023-05-06T11:26:47.638Z,76.50
2023-05-06T11:29:19.355Z,77.90
2023-05-06T11:31:50.383Z,77.70
2023-05-06T11:34:38.617Z,78.90
2023-05-06T11:37:11.479Z,78.40
2023-05-06T11:39:41.534Z,78.90
2023-05-06T11:42:12.057Z,77.80
2023-05-06T11:44:42.708Z,78.00
2023-05-06T11:47:12.826Z,76.50
2023-05-06T11:49:44.603Z,76.40
2023-05-06T11:52:17.339Z,75.40
2023-05-06T11:54:49.610Z,74.60
2023-05-06T11:57:20.474Z,75.40
2023-05-06T11:59:56.326Z,76.50
2023-05-06T12:02:26.604Z,76.60
2023-05-06T12:04:56.844Z,81.40
2023-05-06T12:07:29.811Z,76.90
2023-05-06T12:10:04.308Z,76.80
2023-05-06T12:12:34.687Z,78.30
2023-05-06T12:15:05.023Z,79.50
2023-05-06T12:17:35.613Z,76.50
2023-05-06T12:20:06.841Z,76.00
2023-05-06T12:22:39.830Z,74.10
2023-05-06T12:25:17.487Z,74.20
2023-05-06T12:27:49.649Z,78.70
2023-05-06T12:30:31.791Z,77.40
2023-05-06T12:33:02.917Z,79.50
2023-05-06T12:35:34.890Z,80.40
2023-05-06T12:38:15.016Z,77.70
2023-05-06T12:40:46.271Z,79.80
2023-05-06T12:43:16.758Z,74.10
2023-05-06T12:45:46.951Z,76.80
2023-05-06T12:48:19.493Z,74.80
2023-05-06T12:50:50.582Z,72.60
2023-05-06T12:53:35.183Z,74.40
2023-05-06T12:56:05.267Z,77.90
2023-05-06T13:01:08.248Z,77.20
2023-05-06T13:03:41.154Z,76.70
2023-05-06T13:06:11.561Z,74.50
2023-05-06T13:08:44.429Z,78.90
2023-05-06T13:11:14.553Z,75.20
2023-05-06T13:13:44.697Z,73.00
2023-05-06T13:16:14.914Z,72.00
2023-05-06T13:18:45.043Z,72.50
2023-05-06T13:21:16.169Z,72.00
2023-05-06T13:23:49.699Z,71.10
2023-05-06T13:26:19.917Z,72.20
2023-05-06T13:28:50.256Z,71.20
2023-05-06T13:31:20.131Z,72.30
2023-05-06T13:33:50.414Z,70.20
2023-05-06T13:36:20.587Z,69.70
2023-05-06T13:38:53.362Z,71.30
2023-05-06T13:41:24.775Z,71.00
2023-05-06T13:43:55.252Z,70.70
2023-05-06T13:46:27.416Z,67.40
2023-05-06T13:48:57.833Z,68.60
2023-05-06T13:51:30.891Z,69.10
2023-05-06T13:54:04.172Z,69.20
2023-05-06T13:56:34.314Z,70.40
2023-05-06T13:59:04.479Z,70.70
2023-05-06T14:01:34.632Z,69.50
2023-05-06T14:04:04.812Z,69.50
2023-05-06T14:06:35.025Z,70.40
2023-05-06T14:09:08.292Z,69.90
2023-05-06T14:11:38.364Z,70.90
2023-05-06T14:16:39.120Z,73.60
2023-05-06T14:19:09.309Z,70.60
2023-05-06T14:21:39.396Z,71.90
2023-05-06T14:24:12.913Z,71.90
2023-05-06T14:26:43.259Z,72.80
2023-05-06T14:29:13.406Z,73.20
2023-05-06T14:31:43.567Z,74.00
2023-05-06T14:34:13.726Z,77.60
2023-05-06T14:36:43.973Z,78.20
2023-05-06T14:39:17.104Z,78.20
2023-05-06T14:44:17.688Z,78.30
2023-05-06T14:46:48.019Z,78.70
2023-05-06T14:49:18.260Z,77.00
2023-05-06T14:51:50.154Z,78.10
2023-05-06T14:54:23.018Z,78.30
2023-05-06T14:59:23.328Z,76.20
2023-05-06T15:01:53.488Z,76.20
2023-05-06T15:04:23.639Z,76.00
2023-05-06T15:06:53.791Z,76.40
2023-05-06T15:09:26.677Z,75.10
2023-05-06T15:11:58.158Z,75.10
2023-05-06T15:14:28.397Z,75.40
2023-05-06T15:17:00.134Z,76.60
2023-05-06T15:19:30.484Z,75.60
2023-05-06T15:22:00.875Z,76.60
2023-05-06T15:24:33.604Z,76.60
2023-05-06T15:27:03.678Z,77.50
2023-05-06T15:29:33.848Z,78.80
2023-05-06T15:32:04.001Z,80.10
2023-05-06T15:34:34.203Z,77.80
2023-05-06T15:37:06.910Z,78.80
2023-05-06T15:39:41.142Z,77.30
2023-05-06T15:42:12.361Z,77.00
2023-05-06T15:44:42.540Z,79.30
2023-05-06T15:47:13.013Z,77.40
2023-05-06T15:52:15.870Z,77.50
2023-05-06T15:54:49.976Z,78.60
2023-05-06T15:57:20.602Z,76.60
2023-05-06T15:59:51.212Z,74.50
2023-05-06T16:04:55.014Z,71.90
2023-05-06T16:07:25.445Z,75.60
2023-05-06T16:09:58.291Z,75.80
2023-05-06T16:12:32.241Z,76.10
2023-05-06T16:15:03.461Z,74.80
2023-05-06T16:17:37.834Z,74.40
2023-05-06T16:20:10.656Z,73.40
2023-05-06T16:22:42.583Z,74.40
2023-05-06T16:25:15.632Z,73.60
2023-05-06T16:27:45.684Z,78.60
2023-05-06T16:30:16.562Z,81.90
2023-05-06T16:32:47.137Z,82.00
2023-05-06T16:35:19.015Z,84.00
2023-05-06T16:37:49.109Z,87.20
2023-05-06T16:40:23.245Z,87.80
2023-05-06T16:42:53.360Z,90.00
2023-05-06T16:45:23.799Z,87.40
2023-05-06T16:47:54.032Z,88.20
2023-05-06T16:50:24.229Z,88.80
2023-05-06T16:52:54.374Z,89.10
2023-05-06T16:55:27.499Z,88.90
2023-05-06T16:58:00.398Z,89.80
2023-05-06T17:00:30.670Z,89.00
2023-05-06T17:03:01.237Z,89.60
2023-05-06T17:05:31.618Z,90.20
2023-05-06T17:08:03.675Z,90.50
2023-05-06T17:10:36.623Z,90.50
2023-05-06T17:13:06.816Z,90.50
2023-05-06T17:15:36.998Z,91.10
2023-05-06T17:18:07.535Z,91.00
2023-05-06T17:20:54.542Z,89.70
2023-05-06T17:23:25.664Z,90.80
2023-05-06T17:25:59.743Z,90.80
2023-05-06T17:28:29.822Z,92.40
2023-05-06T17:30:59.988Z,93.40
2023-05-06T17:33:30.135Z,94.80
2023-05-06T17:36:00.276Z,95.80
2023-05-06T17:38:30.382Z,97.60
2023-05-06T17:41:03.279Z,98.20
2023-05-06T17:43:33.779Z,98.60
2023-05-06T17:46:04.248Z,98.50
2023-05-06T17:48:34.940Z,98.80
2023-05-06T17:51:05.229Z,99.90
2023-05-06T17:53:35.388Z,99.90
2023-05-06T17:56:08.927Z,99.90
2023-05-06T17:58:39.057Z,99.90
2023-05-06T18:01:09.348Z,99.90
2023-05-06T18:03:39.635Z,99.90
2023-05-06T18:06:10.378Z,99.90
2023-05-06T18:08:40.482Z,99.90
2023-05-06T18:11:13.458Z,99.90
2023-05-06T18:13:43.556Z,99.90
2023-05-06T18:16:13.702Z,99.90
2023-05-06T18:18:43.824Z,99.90
2023-05-06T18:21:13.945Z,99.90
2023-05-06T18:23:44.027Z,99.90
2023-05-06T18:26:27.934Z,99.90
2023-05-06T18:29:07.501Z,99.90
2023-05-06T18:31:37.931Z,99.90
2023-05-06T18:34:08.060Z,99.90
2023-05-06T18:36:38.203Z,99.90
2023-05-06T18:39:09.030Z,99.90
2023-05-06T18:41:42.085Z,99.90
2023-05-06T18:44:12.246Z,99.90
2023-05-06T18:46:42.453Z,99.90
2023-05-06T18:49:14.374Z,99.90
2023-05-06T18:51:44.618Z,99.90
2023-05-06T18:54:16.275Z,99.90
2023-05-06T18:56:50.613Z,99.90
2023-05-06T18:59:21.589Z,99.90
2023-05-06T19:01:51.818Z,99.90
2023-05-06T19:04:21.936Z,99.90
2023-05-06T19:06:52.108Z,99.90
2023-05-06T19:09:22.398Z,99.90
2023-05-06T19:11:55.715Z,99.90
2023-05-06T19:14:25.841Z,99.90
2023-05-06T19:16:56.208Z,99.90
2023-05-06T19:19:26.402Z,99.90
2023-05-06T19:21:57.909Z,99.90
2023-05-06T19:24:30.093Z,99.90
2023-05-06T19:27:03.025Z,99.90
2023-05-06T19:29:33.082Z,99.90
2023-05-06T19:32:04.556Z,99.90
2023-05-06T19:34:34.687Z,99.90
2023-05-06T19:37:04.961Z,99.90
2023-05-06T19:39:35.434Z,99.90
2023-05-06T19:42:08.885Z,99.90
2023-05-06T19:44:39.073Z,99.90
2023-05-06T19:47:09.335Z,99.90
2023-05-06T19:49:39.476Z,99.90
2023-05-06T19:52:09.610Z,99.90
2023-05-06T19:54:39.667Z,99.90
2023-05-06T19:57:12.391Z,99.90
2023-05-06T19:59:42.460Z,99.90
2023-05-06T20:02:13.716Z,99.90
2023-05-06T20:04:43.808Z,99.90
2023-05-06T20:07:14.138Z,99.90
2023-05-06T20:09:44.633Z,99.90
2023-05-06T20:12:17.355Z,99.90
2023-05-06T20:14:47.653Z,99.90
2023-05-06T20:17:17.848Z,99.90
2023-05-06T20:19:48.257Z,99.90
2023-05-06T20:22:18.694Z,99.90
2023-05-06T20:24:48.811Z,99.90
2023-05-06T20:32:22.828Z,99.90
2023-05-06T20:34:53.446Z,99.90
2023-05-06T20:37:23.552Z,99.90
2023-05-06T20:39:53.647Z,99.90
2023-05-06T20:42:26.551Z,99.90
2023-05-06T20:44:56.830Z,99.90
2023-05-06T20:47:27.159Z,99.90
2023-05-06T20:49:58.331Z,99.90
2023-05-06T20:52:28.631Z,99.90
2023-05-06T20:54:58.797Z,99.90
2023-05-06T20:57:31.636Z,99.90
2023-05-06T21:00:01.801Z,99.90
2023-05-06T21:02:34.199Z,99.90
2023-05-06T21:05:06.591Z,99.90
2023-05-06T21:07:36.841Z,99.90
2023-05-06T21:10:08.055Z,99.90
2023-05-06T21:12:40.815Z,99.90
2023-05-06T21:15:12.552Z,99.90
2023-05-06T21:17:43.188Z,99.90
2023-05-06T21:20:14.675Z,99.90
2023-05-06T21:22:44.809Z,99.90
2023-05-06T21:25:15.519Z,99.90
2023-05-06T21:27:48.279Z,99.90
2023-05-06T21:30:18.667Z,99.90
2023-05-06T21:35:19.419Z,99.90
2023-05-06T21:37:49.686Z,99.90
2023-05-06T21:40:20.153Z,99.90
2023-05-06T21:42:53.215Z,99.90
2023-05-06T21:45:24.227Z,99.90
2023-05-06T21:47:54.437Z,99.90
2023-05-06T21:50:24.745Z,99.90
2023-05-06T21:52:55.104Z,99.90
2023-05-06T21:55:27.871Z,99.90
2023-05-06T21:58:00.717Z,99.90
2023-05-06T22:00:31.109Z,99.90
2023-05-06T22:03:02.025Z,99.90
2023-05-06T22:05:32.254Z,99.90
2023-05-06T22:08:02.434Z,99.90
2023-05-06T22:10:32.748Z,99.90
2023-05-06T22:13:05.698Z,99.90
2023-05-06T22:15:36.134Z,99.90
2023-05-06T22:18:08.920Z,99.90
2023-05-06T22:20:39.186Z,99.90
2023-05-06T22:23:09.880Z,99.90
2023-05-06T22:25:39.973Z,99.90
2023-05-06T22:28:12.712Z,99.90
2023-05-06T22:30:42.815Z,99.90
2023-05-06T22:33:13.000Z,99.90
2023-05-06T22:35:43.203Z,99.90
2023-05-06T22:38:13.600Z,99.90
2023-05-06T22:40:43.697Z,99.90
2023-05-06T22:43:16.477Z,99.90
2023-05-06T22:45:46.551Z,99.90
2023-05-06T22:48:16.891Z,99.90
2023-05-06T22:50:47.030Z,99.90
2023-05-06T22:53:17.197Z,99.90
2023-05-06T22:55:47.296Z,99.90
2023-05-06T22:58:20.072Z,99.90
2023-05-06T23:00:51.506Z,99.90
2023-05-06T23:03:22.930Z,99.90
2023-05-06T23:05:53.317Z,99.90
2023-05-06T23:08:23.862Z,99.90
2023-05-06T23:10:54.030Z,99.90
2023-05-06T23:13:27.145Z,99.90
2023-05-06T23:15:57.316Z,99.90
2023-05-06T23:18:27.523Z,99.90
2023-05-06T23:20:57.571Z,99.90
2023-05-06T23:23:27.868Z,99.90
2023-05-06T23:25:58.103Z,99.90
2023-05-06T23:28:31.411Z,99.90
2023-05-06T23:31:01.535Z,99.90
2023-05-06T23:33:31.672Z,99.90
2023-05-06T23:36:02.879Z,99.90
2023-05-06T23:38:33.062Z,99.90
2023-05-06T23:41:03.133Z,99.90
2023-05-06T23:43:36.033Z,99.90
2023-05-06T23:46:06.274Z,99.90
2023-05-06T23:48:37.347Z,99.90
2023-05-06T23:51:07.802Z,99.90
2023-05-06T23:53:37.901Z,99.90
2023-05-06T23:56:08.873Z,99.90
2023-05-06T23:58:41.583Z,99.90
